createdAt,value
2022-11-05T00:01:47.296Z,4.22
2022-11-05T00:04:33.115Z,4.38
2022-11-05T00:07:32.093Z,4.32
2022-11-05T00:10:14.653Z,4.62
2022-11-05T00:12:59.889Z,4.80
2022-11-05T00:15:45.066Z,4.81
2022-11-05T00:18:11.668Z,4.78
2022-11-05T00:20:38.274Z,4.77
2022-11-05T00:23:24.881Z,4.80
2022-11-05T00:25:59.665Z,4.77
2022-11-05T00:28:28.455Z,4.74
2022-11-05T00:31:03.607Z,4.63
2022-11-05T00:33:30.466Z,4.65
2022-11-05T00:35:57.072Z,4.62
2022-11-05T00:38:23.863Z,4.66
2022-11-05T00:40:50.473Z,4.62
2022-11-05T00:43:35.644Z,4.65
2022-11-05T00:46:02.248Z,4.60
2022-11-05T00:48:47.595Z,4.62
2022-11-05T00:51:14.241Z,4.63
2022-11-05T00:53:40.855Z,4.62
2022-11-05T00:56:07.475Z,4.57
2022-11-05T00:58:34.193Z,4.55
2022-11-05T01:01:01.451Z,4.63
2022-11-05T01:03:33.406Z,4.64
2022-11-05T01:06:06.658Z,4.59
2022-11-05T01:08:33.239Z,4.45
2022-11-05T01:10:59.913Z,4.41
2022-11-05T01:13:29.292Z,4.43
2022-11-05T01:15:56.854Z,4.50
2022-11-05T01:18:24.285Z,4.56
2022-11-05T01:20:51.071Z,4.56
2022-11-05T01:23:17.794Z,4.67
2022-11-05T01:25:45.073Z,4.76
2022-11-05T01:28:11.744Z,4.81
2022-11-05T01:30:38.656Z,4.79
2022-11-05T01:33:05.548Z,4.79
2022-11-05T01:35:32.233Z,4.76
2022-11-05T01:37:58.961Z,4.72
2022-11-05T01:40:26.273Z,4.70
2022-11-05T01:42:52.936Z,4.65
2022-11-05T01:45:28.202Z,4.59
2022-11-05T01:48:00.001Z,4.55
2022-11-05T01:50:43.408Z,4.65
2022-11-05T01:53:18.894Z,4.62
2022-11-05T01:56:14.453Z,4.71
2022-11-05T01:58:56.823Z,4.71
2022-11-05T02:01:23.618Z,4.71
2022-11-05T02:03:52.069Z,4.70
2022-11-05T02:06:19.196Z,4.74
2022-11-05T02:09:03.681Z,4.71
2022-11-05T02:11:30.794Z,4.71
2022-11-05T02:13:57.455Z,4.70
2022-11-05T02:16:48.417Z,4.81
2022-11-05T02:19:33.694Z,4.82
2022-11-05T02:22:37.975Z,4.83
2022-11-05T02:25:16.527Z,4.85
2022-11-05T02:28:02.932Z,4.87
2022-11-05T02:30:53.728Z,4.86
2022-11-05T02:33:34.516Z,4.92
2022-11-05T02:36:14.953Z,4.88
2022-11-05T02:39:04.340Z,4.89
2022-11-05T02:41:40.139Z,4.85
2022-11-05T02:44:23.093Z,4.87
2022-11-05T02:47:18.016Z,4.88
2022-11-05T02:49:51.018Z,4.82
2022-11-05T02:52:38.170Z,4.77
2022-11-05T02:55:26.874Z,4.79
2022-11-05T02:57:53.516Z,4.76
2022-11-05T03:00:44.856Z,4.79
2022-11-05T03:03:23.670Z,4.75
2022-11-05T03:05:59.115Z,4.73
2022-11-05T03:08:39.104Z,4.74
2022-11-05T03:11:14.684Z,4.76
2022-11-05T03:13:47.039Z,4.76
2022-11-05T03:16:20.584Z,4.79
2022-11-05T03:19:02.228Z,4.80
2022-11-05T03:21:36.737Z,4.83
2022-11-05T03:24:10.726Z,4.82
2022-11-05T03:26:49.634Z,4.82
2022-11-05T03:29:26.564Z,4.78
2022-11-05T03:31:55.441Z,4.70
2022-11-05T03:34:27.036Z,4.68
2022-11-05T03:36:55.978Z,4.60
2022-11-05T03:39:28.663Z,4.61
2022-11-05T03:41:57.585Z,4.53
2022-11-05T03:44:28.033Z,4.58
2022-11-05T03:47:00.748Z,4.58
2022-11-05T03:49:32.972Z,4.49
2022-11-05T03:52:17.245Z,4.49
2022-11-05T03:54:44.312Z,4.48
2022-11-05T03:57:19.313Z,4.38
2022-11-05T03:59:48.680Z,4.41
2022-11-05T04:02:17.429Z,4.31
2022-11-05T04:04:44.399Z,4.44
2022-11-05T04:07:30.580Z,4.46
2022-11-05T04:10:15.848Z,4.44
2022-11-05T04:13:02.764Z,4.39
2022-11-05T04:15:29.803Z,4.43
2022-11-05T04:17:59.006Z,4.42
2022-11-05T04:20:44.691Z,4.37
2022-11-05T04:23:30.074Z,4.32
2022-11-05T04:25:56.680Z,4.30
2022-11-05T04:28:43.229Z,4.32
2022-11-05T04:31:09.942Z,4.30
2022-11-05T04:33:36.547Z,4.31
2022-11-05T04:36:03.226Z,4.27
2022-11-05T04:38:29.815Z,4.29
2022-11-05T04:41:12.860Z,4.33
2022-11-05T04:43:39.451Z,4.34
2022-11-05T04:46:06.135Z,4.34
2022-11-05T04:48:32.773Z,4.37
2022-11-05T04:50:59.401Z,4.19
2022-11-05T04:53:26.009Z,4.21
2022-11-05T04:55:52.683Z,4.21
2022-11-05T04:58:19.428Z,4.19
2022-11-05T05:00:46.081Z,4.16
2022-11-05T05:03:13.145Z,4.11
2022-11-05T05:05:39.953Z,4.19
2022-11-05T05:08:06.686Z,4.21
2022-11-05T05:10:33.267Z,4.18
2022-11-05T05:12:59.884Z,4.14
2022-11-05T05:15:26.480Z,4.10
2022-11-05T05:17:53.161Z,4.16
2022-11-05T05:20:38.589Z,4.16
2022-11-05T05:23:05.198Z,4.18
2022-11-05T05:25:31.844Z,4.19
2022-11-05T05:27:59.863Z,4.23
2022-11-05T05:30:26.506Z,4.22
2022-11-05T05:32:53.098Z,4.28
2022-11-05T05:35:19.710Z,4.29
2022-11-05T05:37:46.366Z,4.23
2022-11-05T05:40:12.996Z,4.27
2022-11-05T05:42:43.067Z,4.24
2022-11-05T05:45:11.241Z,4.30
2022-11-05T05:47:37.934Z,4.28
2022-11-05T05:50:05.101Z,4.30
2022-11-05T05:52:31.989Z,4.35
2022-11-05T05:54:58.628Z,4.44
2022-11-05T05:57:25.231Z,4.46
2022-11-05T05:59:51.804Z,4.59
2022-11-05T06:02:18.549Z,4.75
2022-11-05T06:04:45.193Z,4.83
2022-11-05T06:07:11.828Z,4.90
2022-11-05T06:09:38.483Z,4.95
2022-11-05T06:12:05.549Z,5.05
2022-11-05T06:14:32.177Z,5.15
2022-11-05T06:16:58.844Z,5.20
2022-11-05T06:19:25.459Z,5.20
2022-11-05T06:21:52.066Z,5.17
2022-11-05T06:24:18.674Z,5.06
2022-11-05T06:26:45.275Z,5.02
2022-11-05T06:29:11.919Z,4.97
2022-11-05T06:31:38.523Z,4.99
2022-11-05T06:34:05.239Z,4.99
2022-11-05T06:36:31.856Z,4.86
2022-11-05T06:38:58.420Z,4.83
2022-11-05T06:41:25.160Z,4.85
2022-11-05T06:43:51.745Z,4.85
2022-11-05T06:46:18.499Z,4.92
2022-11-05T06:48:45.143Z,4.88
2022-11-05T06:51:11.766Z,5.04
2022-11-05T06:53:38.378Z,4.97
2022-11-05T06:56:06.022Z,5.02
2022-11-05T06:58:32.941Z,4.99
2022-11-05T07:01:04.645Z,5.08
2022-11-05T07:03:32.271Z,5.07
2022-11-05T07:06:00.793Z,5.14
2022-11-05T07:08:32.365Z,5.07
2022-11-05T07:10:59.631Z,5.23
2022-11-05T07:13:27.182Z,5.13
2022-11-05T07:15:53.940Z,5.11
2022-11-05T07:18:20.523Z,5.20
2022-11-05T07:20:47.180Z,5.17
2022-11-05T07:23:15.068Z,5.15
2022-11-05T07:25:42.875Z,5.28
2022-11-05T07:28:10.214Z,5.24
2022-11-05T07:30:37.300Z,5.17
2022-11-05T07:33:04.093Z,5.02
2022-11-05T07:35:30.823Z,4.89
2022-11-05T07:37:57.599Z,5.01
2022-11-05T07:40:26.134Z,5.26
2022-11-05T07:42:54.931Z,5.18
2022-11-05T07:45:22.810Z,5.25
2022-11-05T07:47:51.317Z,5.03
2022-11-05T07:50:19.279Z,5.03
2022-11-05T07:52:46.588Z,5.05
2022-11-05T07:55:13.440Z,5.13
2022-11-05T07:57:44.914Z,5.17
2022-11-05T08:00:14.277Z,5.24
2022-11-05T08:02:42.012Z,5.36
2022-11-05T08:05:10.213Z,5.38
2022-11-05T08:07:36.985Z,5.38
2022-11-05T08:10:04.386Z,5.34
2022-11-05T08:12:31.955Z,5.36
2022-11-05T08:14:58.657Z,5.38
2022-11-05T08:17:25.411Z,5.46
2022-11-05T08:19:52.003Z,5.41
2022-11-05T08:22:18.712Z,5.33
2022-11-05T08:24:45.283Z,5.31
2022-11-05T08:27:11.916Z,5.35
2022-11-05T08:29:38.579Z,5.29
2022-11-05T08:32:05.311Z,5.04
2022-11-05T08:34:32.004Z,5.13
2022-11-05T08:37:00.944Z,5.10
2022-11-05T08:39:27.849Z,4.78
2022-11-05T08:41:54.893Z,4.86
2022-11-05T08:44:21.547Z,4.88
2022-11-05T08:46:48.311Z,4.75
2022-11-05T08:49:14.944Z,4.86
2022-11-05T08:51:41.828Z,5.00
2022-11-05T08:54:08.530Z,4.92
2022-11-05T08:56:35.240Z,4.78
2022-11-05T08:59:01.913Z,4.87
2022-11-05T09:01:28.615Z,4.83
2022-11-05T09:03:55.355Z,4.86
2022-11-05T09:06:22.207Z,4.97
2022-11-05T09:08:48.823Z,4.97
2022-11-05T09:11:15.572Z,4.86
2022-11-05T09:13:42.547Z,4.66
2022-11-05T09:16:19.874Z,4.81
2022-11-05T09:18:46.525Z,4.96
2022-11-05T09:21:13.265Z,4.84
2022-11-05T09:23:40.021Z,4.96
2022-11-05T09:26:06.780Z,4.96
2022-11-05T09:28:33.507Z,4.99
2022-11-05T09:31:00.764Z,5.00
2022-11-05T09:33:28.162Z,5.04
2022-11-05T09:35:54.864Z,5.11
2022-11-05T09:38:21.564Z,5.06
2022-11-05T09:41:15.369Z,5.07
2022-11-05T09:43:49.511Z,5.03
2022-11-05T09:46:41.892Z,5.08
2022-11-05T09:49:18.827Z,5.11
2022-11-05T09:51:45.475Z,5.09
2022-11-05T09:54:13.327Z,5.08
2022-11-05T09:56:41.379Z,5.13
2022-11-05T09:59:37.189Z,5.16
2022-11-05T10:02:28.347Z,5.15
2022-11-05T10:04:57.930Z,5.22
2022-11-05T10:07:27.167Z,5.16
2022-11-05T10:10:02.845Z,5.19
2022-11-05T10:12:34.359Z,5.15
2022-11-05T10:15:16.012Z,5.14
2022-11-05T10:17:46.742Z,5.21
2022-11-05T10:20:24.649Z,5.23
2022-11-05T10:22:56.608Z,5.19
2022-11-05T10:25:25.349Z,5.21
2022-11-05T10:27:54.358Z,5.16
2022-11-05T10:30:21.726Z,5.06
2022-11-05T10:32:48.831Z,4.94
2022-11-05T10:35:18.695Z,5.05
2022-11-05T10:37:46.843Z,5.07
2022-11-05T10:40:18.716Z,5.14
2022-11-05T10:43:03.258Z,5.05
2022-11-05T10:45:56.330Z,5.07
2022-11-05T10:48:43.999Z,5.05
2022-11-05T10:51:11.488Z,4.98
2022-11-05T10:53:39.272Z,4.95
2022-11-05T10:56:51.826Z,4.89
2022-11-05T10:59:29.959Z,4.93
2022-11-05T11:02:00.181Z,4.92
2022-11-05T11:04:32.354Z,4.88
2022-11-05T11:07:04.106Z,4.93
2022-11-05T11:09:32.671Z,4.92
2022-11-05T11:12:22.216Z,5.03
2022-11-05T11:15:23.668Z,5.01
2022-11-05T11:17:50.324Z,5.14
2022-11-05T14:08:42.957Z,4.97
2022-11-05T14:11:32.889Z,5.03
2022-11-05T14:14:03.470Z,5.04
2022-11-05T14:16:49.982Z,4.97
2022-11-05T14:19:19.709Z,4.99
2022-11-05T14:21:51.730Z,4.91
2022-11-05T14:24:43.223Z,4.84
2022-11-05T14:27:10.475Z,4.83
2022-11-05T14:29:42.261Z,4.83
2022-11-05T14:32:18.756Z,4.91
2022-11-05T14:34:47.139Z,4.89
2022-11-05T14:37:13.778Z,4.87
2022-11-05T14:39:40.632Z,4.80
2022-11-05T14:42:23.581Z,4.77
2022-11-05T14:45:01.339Z,4.79
2022-11-05T14:47:37.471Z,4.77
2022-11-05T14:50:24.266Z,4.66
2022-11-05T14:53:08.108Z,4.62
2022-11-05T14:55:37.708Z,4.59
2022-11-05T14:58:26.518Z,4.52
2022-11-05T15:00:53.899Z,4.61
2022-11-05T15:03:45.495Z,4.60
2022-11-05T15:06:29.847Z,4.62
2022-11-05T15:09:08.545Z,4.62
2022-11-05T15:11:41.277Z,4.60
2022-11-05T15:14:17.433Z,4.50
2022-11-05T15:16:49.715Z,4.52
2022-11-05T15:19:29.756Z,4.46
2022-11-05T15:21:58.176Z,4.40
2022-11-05T15:24:28.212Z,4.30
2022-11-05T15:27:34.565Z,4.27
2022-11-05T15:30:24.021Z,4.30
2022-11-05T15:32:51.529Z,4.21
2022-11-05T15:35:27.799Z,4.24
2022-11-05T15:38:01.740Z,4.21
2022-11-05T15:40:31.408Z,4.20
2022-11-05T15:43:17.368Z,4.18
2022-11-05T15:45:44.540Z,4.21
2022-11-05T15:48:15.994Z,4.22
2022-11-05T15:50:42.687Z,4.24
2022-11-05T15:53:47.399Z,4.13
2022-11-05T15:56:40.304Z,4.11
2022-11-05T15:59:17.602Z,4.11
2022-11-05T16:01:50.201Z,4.09
2022-11-05T16:04:29.188Z,4.06
2022-11-05T16:06:58.555Z,3.96
2022-11-05T16:09:30.935Z,4.03
2022-11-05T16:12:36.604Z,3.87
2022-11-05T16:15:09.152Z,4.00
2022-11-05T16:17:53.798Z,4.02
2022-11-05T16:20:30.315Z,3.96
2022-11-05T16:22:59.701Z,3.97
2022-11-05T16:25:29.970Z,3.96
2022-11-05T16:27:58.105Z,3.93
2022-11-05T16:30:25.553Z,3.96
2022-11-05T16:32:52.403Z,3.95
2022-11-05T16:35:26.264Z,3.91
2022-11-05T16:37:52.891Z,3.87
2022-11-05T16:40:24.378Z,3.84
2022-11-05T16:42:52.483Z,3.82
2022-11-05T16:45:22.064Z,3.81
2022-11-05T16:47:49.113Z,3.81
2022-11-05T16:50:17.840Z,3.83
2022-11-05T16:52:45.977Z,3.82
2022-11-05T16:55:13.911Z,3.75
2022-11-05T16:57:42.729Z,3.70
2022-11-05T17:00:13.444Z,3.77
2022-11-05T17:02:40.282Z,3.79
2022-11-05T17:05:13.058Z,3.75
2022-11-05T17:07:41.517Z,3.75
2022-11-05T17:10:08.335Z,3.75
2022-11-05T17:12:35.882Z,3.82
2022-11-05T17:15:02.508Z,3.72
2022-11-05T17:17:29.263Z,3.77
2022-11-05T17:19:55.876Z,3.80
2022-11-05T17:22:22.501Z,3.82
2022-11-05T17:24:49.113Z,3.85
2022-11-05T17:27:15.757Z,3.82
2022-11-05T17:29:42.345Z,3.79
2022-11-05T17:32:08.950Z,3.85
2022-11-05T17:34:35.629Z,3.76
2022-11-05T17:37:02.237Z,3.74
2022-11-05T17:39:31.898Z,3.77
2022-11-05T17:41:58.766Z,3.69
2022-11-05T17:44:25.762Z,3.71
2022-11-05T17:46:52.429Z,3.68
2022-11-05T17:49:19.048Z,3.63
2022-11-05T17:51:45.712Z,3.62
2022-11-05T17:54:12.365Z,3.62
2022-11-05T17:56:44.593Z,3.66
2022-11-05T17:59:11.361Z,3.65
2022-11-05T18:01:43.373Z,3.75
2022-11-05T18:04:10.437Z,3.70
2022-11-05T18:06:38.274Z,3.70
2022-11-05T18:09:06.357Z,3.71
2022-11-05T18:11:33.982Z,3.77
2022-11-05T18:14:00.657Z,3.68
2022-11-05T18:16:27.325Z,3.75
2022-11-05T18:18:53.906Z,3.74
2022-11-05T18:21:20.496Z,3.77
2022-11-05T18:23:47.114Z,3.73
2022-11-05T18:26:15.972Z,3.73
2022-11-05T18:28:43.575Z,3.62
2022-11-05T18:31:20.583Z,3.59
2022-11-05T18:33:50.781Z,3.59
2022-11-05T18:36:28.298Z,3.62
2022-11-05T18:38:57.153Z,3.65
2022-11-05T18:41:24.105Z,3.64
2022-11-05T18:43:51.418Z,3.61
2022-11-05T18:46:43.101Z,3.60
2022-11-05T18:49:05.721Z,3.64
2022-11-05T18:51:32.783Z,3.70
2022-11-05T18:54:00.649Z,3.71
2022-11-05T18:56:27.303Z,3.76
2022-11-05T18:59:14.553Z,3.73
2022-11-05T19:01:41.220Z,3.73
2022-11-05T19:04:07.979Z,3.77
2022-11-05T19:06:35.458Z,3.73
2022-11-05T19:09:02.450Z,3.75
2022-11-05T21:55:09.115Z,3.83
2022-11-05T21:57:54.258Z,3.98
2022-11-05T22:00:20.943Z,3.82
2022-11-05T22:02:47.672Z,3.84
2022-11-05T22:05:14.730Z,3.79
2022-11-05T22:07:41.442Z,3.70
2022-11-05T22:10:15.783Z,3.77
2022-11-05T22:12:43.737Z,3.73
2022-11-05T22:15:10.781Z,3.73
2022-11-05T22:17:38.359Z,3.67
2022-11-05T22:20:08.444Z,3.73
2022-11-05T22:22:35.147Z,3.79
2022-11-05T22:25:01.751Z,3.87
2022-11-05T22:27:28.346Z,3.79
2022-11-05T22:29:55.007Z,3.75
2022-11-05T22:32:21.594Z,3.84
2022-11-05T22:34:48.897Z,3.81
2022-11-05T22:37:15.511Z,3.68
2022-11-05T22:39:42.143Z,3.75
2022-11-05T22:42:09.092Z,3.72
2022-11-05T22:44:36.561Z,3.76
2022-11-05T22:47:03.212Z,3.83
2022-11-05T22:49:29.878Z,3.77
2022-11-05T22:51:56.504Z,3.82
2022-11-05T22:54:23.162Z,3.80
2022-11-05T22:56:50.399Z,3.74
2022-11-05T22:59:17.031Z,3.83
2022-11-05T23:01:45.151Z,3.77
2022-11-05T23:04:13.276Z,3.76
2022-11-05T23:06:58.694Z,3.79
2022-11-05T23:09:47.050Z,3.73
2022-11-05T23:12:29.881Z,3.71
2022-11-05T23:14:58.248Z,3.64
2022-11-05T23:17:43.640Z,3.71
2022-11-05T23:20:38.517Z,3.75
2022-11-05T23:23:28.144Z,3.77
2022-11-05T23:25:58.805Z,3.77
2022-11-05T23:28:25.912Z,3.86
2022-11-05T23:31:11.114Z,3.82
2022-11-05T23:33:37.751Z,3.94
2022-11-05T23:36:22.762Z,3.86
2022-11-05T23:38:49.412Z,3.90
2022-11-05T23:41:34.623Z,3.86
2022-11-05T23:44:19.746Z,3.91
2022-11-05T23:47:04.949Z,3.90
2022-11-05T23:49:31.660Z,3.85
2022-11-05T23:51:58.272Z,3.91
2022-11-05T23:54:24.925Z,3.97
2022-11-05T23:56:51.516Z,3.81
2022-11-05T23:59:18.108Z,3.89
